Time;durP1;ratioP1;P1;durP2;ratioP2;P2;SDS_P1;SDS_P2;PMS_P1;PMS_P2;Temp;Humidity;BMP_temperature;BMP_pressure;BME280_temperature;BME280_humidity;BME280_pressure;Samples;Min_cycle;Max_cycle;Signal;HPM_P1;HPM_P2
2023/06/16 00:01:06;;;;;;;16.95;12.75;;;16.30;99.90;;;;;;5044656;28;20030;-75
2023/06/16 00:03:35;;;;;;;19.25;12.90;;;16.30;99.90;;;;;;5044337;28;20013;-75
2023/06/16 00:06:29;;;;;;;17.30;11.77;;;16.20;99.90;;;;;;5044503;28;20025;-74
2023/06/16 00:08:54;;;;;;;17.48;13.05;;;16.30;99.90;;;;;;5044201;28;20032;-73
2023/06/16 00:11:20;;;;;;;17.27;12.70;;;16.30;99.90;;;;;;5042856;28;20033;-75
2023/06/16 00:13:48;;;;;;;19.23;12.90;;;16.20;99.90;;;;;;5044232;28;20033;-73
2023/06/16 00:16:19;;;;;;;20.58;13.23;;;16.20;99.90;;;;;;5044204;28;20025;-74
2023/06/16 00:18:52;;;;;;;22.70;14.88;;;16.20;99.90;;;;;;5042846;28;20018;-74
2023/06/16 00:21:37;;;;;;;23.85;15.52;;;16.10;99.90;;;;;;5044366;28;20053;-74
2023/06/16 00:24:12;;;;;;;20.85;14.88;;;16.10;99.90;;;;;;5044119;28;20100;-73
2023/06/16 00:26:38;;;;;;;24.48;15.35;;;16.10;99.90;;;;;;5044167;28;20037;-75
2023/06/16 00:29:08;;;;;;;22.42;15.23;;;16.00;99.90;;;;;;5044292;28;20029;-75
2023/06/16 00:31:34;;;;;;;27.52;16.30;;;16.00;99.90;;;;;;5042290;28;20048;-75
2023/06/16 00:34:00;;;;;;;22.25;15.65;;;16.00;99.90;;;;;;5042609;28;20038;-74
2023/06/16 00:36:26;;;;;;;26.05;16.58;;;16.00;99.90;;;;;;5042235;28;20078;-75
2023/06/16 00:38:51;;;;;;;22.50;16.73;;;15.90;99.90;;;;;;5043642;28;20069;-74
2023/06/16 00:41:17;;;;;;;24.23;16.52;;;16.00;99.90;;;;;;5043916;28;20095;-74
2023/06/16 00:43:42;;;;;;;24.35;16.85;;;16.00;99.90;;;;;;5042746;28;20028;-75
2023/06/16 00:46:12;;;;;;;26.75;16.92;;;15.90;99.90;;;;;;5042003;28;20116;-74
2023/06/16 00:48:38;;;;;;;23.48;16.92;;;15.90;99.90;;;;;;5043754;28;20101;-74
2023/06/16 00:51:04;;;;;;;26.55;18.13;;;16.00;99.90;;;;;;5042459;28;20053;-74
2023/06/16 00:53:31;;;;;;;30.75;19.10;;;15.90;99.90;;;;;;5042279;28;20037;-74
2023/06/16 00:55:58;;;;;;;27.73;17.67;;;15.90;99.90;;;;;;5043903;28;20022;-74
2023/06/16 00:58:24;;;;;;;24.45;17.50;;;15.80;99.90;;;;;;5043211;28;20075;-76
2023/06/16 01:00:51;;;;;;;24.77;17.73;;;15.70;99.90;;;;;;5043298;28;20025;-74
2023/06/16 01:03:17;;;;;;;25.88;17.45;;;15.80;99.90;;;;;;5043677;28;20029;-72
2023/06/16 01:05:43;;;;;;;29.02;18.85;;;15.70;99.90;;;;;;5041764;28;20053;-74
2023/06/16 01:08:25;;;;;;;25.95;18.58;;;15.70;99.90;;;;;;5043034;28;20111;-74
2023/06/16 01:11:03;;;;;;;27.15;18.65;;;15.70;99.90;;;;;;5043201;28;20026;-74
2023/06/16 01:13:41;;;;;;;25.20;18.23;;;15.70;99.90;;;;;;5043056;28;20513;-73
2023/06/16 01:16:09;;;;;;;25.80;18.42;;;15.70;99.90;;;;;;5041740;28;20037;-74
2023/06/16 01:18:38;;;;;;;27.30;18.77;;;15.70;99.90;;;;;;5043460;28;20643;-74
2023/06/16 01:21:17;;;;;;;25.80;18.33;;;15.70;99.90;;;;;;5041742;28;20038;-76
2023/06/16 01:24:03;;;;;;;28.92;19.58;;;15.70;99.90;;;;;;5041474;28;20032;-72
2023/06/16 01:26:31;;;;;;;30.55;19.88;;;15.70;99.90;;;;;;5041701;28;20032;-73
2023/06/16 01:29:00;;;;;;;30.17;18.75;;;15.60;99.90;;;;;;5041282;28;20550;-73
2023/06/16 01:31:28;;;;;;;24.27;17.83;;;15.50;99.90;;;;;;5040559;28;20029;-73
2023/06/16 01:33:55;;;;;;;27.40;18.90;;;15.60;99.90;;;;;;5042599;28;20131;-73
2023/06/16 01:36:21;;;;;;;36.10;19.60;;;15.50;99.90;;;;;;5041338;28;20029;-74
2023/06/16 01:38:48;;;;;;;25.70;18.05;;;15.50;99.90;;;;;;5041272;28;20029;-72
2023/06/16 01:41:17;;;;;;;29.25;19.52;;;15.50;99.90;;;;;;5042928;28;20029;-74
2023/06/16 01:43:43;;;;;;;30.20;19.90;;;15.40;99.90;;;;;;5040920;28;20550;-74
2023/06/16 01:46:09;;;;;;;28.95;20.20;;;15.40;99.90;;;;;;5042270;28;20047;-73
2023/06/16 01:48:35;;;;;;;30.48;20.50;;;15.50;99.90;;;;;;5042384;28;20030;-75
2023/06/16 01:51:01;;;;;;;32.00;20.45;;;15.40;99.90;;;;;;5040403;28;20414;-74
2023/06/16 01:53:27;;;;;;;32.72;21.90;;;15.30;99.90;;;;;;5042863;28;20041;-76
2023/06/16 01:55:53;;;;;;;32.53;20.75;;;15.50;99.90;;;;;;5041173;28;20024;-74
2023/06/16 01:58:21;;;;;;;31.25;21.63;;;15.30;99.90;;;;;;5042576;28;20053;-75
2023/06/16 02:00:59;;;;;;;33.22;21.67;;;15.30;99.90;;;;;;5040782;28;20021;-76
2023/06/16 02:03:56;;;;;;;31.85;21.73;;;15.20;99.90;;;;;;5042085;28;20026;-75
2023/06/16 02:06:28;;;;;;;28.33;20.40;;;15.30;99.90;;;;;;5041041;28;20041;-74
2023/06/16 02:08:58;;;;;;;36.00;22.25;;;15.30;99.90;;;;;;5042282;28;20085;-75
2023/06/16 02:11:25;;;;;;;33.88;21.55;;;15.30;99.90;;;;;;5039371;28;20038;-74
2023/06/16 02:13:51;;;;;;;28.02;20.50;;;15.30;99.90;;;;;;5041937;28;20093;-74
2023/06/16 02:16:18;;;;;;;35.85;21.25;;;15.30;99.90;;;;;;5041479;28;20033;-73
2023/06/16 02:18:44;;;;;;;36.67;21.60;;;15.40;99.90;;;;;;5041838;28;20025;-73
2023/06/16 02:21:10;;;;;;;33.83;22.02;;;15.30;99.90;;;;;;5040867;28;20029;-74
2023/06/16 02:23:35;;;;;;;31.73;22.10;;;15.30;99.90;;;;;;5040063;28;20036;-73
2023/06/16 02:26:01;;;;;;;34.40;22.27;;;15.30;99.90;;;;;;5042308;28;20403;-75
2023/06/16 02:28:26;;;;;;;31.50;21.67;;;15.30;99.90;;;;;;5040852;28;20025;-73
2023/06/16 02:30:52;;;;;;;29.38;20.98;;;15.20;99.90;;;;;;5041529;28;20024;-75
2023/06/16 02:33:18;;;;;;;29.08;20.85;;;15.20;99.90;;;;;;5040444;28;20037;-76
2023/06/16 02:35:43;;;;;;;33.42;21.70;;;15.20;99.90;;;;;;5041476;28;20029;-76
2023/06/16 02:38:09;;;;;;;31.25;20.98;;;15.30;99.90;;;;;;5040368;28;20628;-75
2023/06/16 02:40:35;;;;;;;28.38;20.17;;;15.30;99.90;;;;;;5042004;28;20018;-74
2023/06/16 02:43:01;;;;;;;29.27;20.20;;;15.20;99.90;;;;;;5042095;28;20394;-76
2023/06/16 02:45:26;;;;;;;32.85;20.85;;;15.10;99.90;;;;;;5040464;28;20033;-75
2023/06/16 02:47:52;;;;;;;31.05;21.05;;;15.20;99.90;;;;;;5041625;28;20017;-76
2023/06/16 02:50:18;;;;;;;29.48;20.52;;;15.10;99.90;;;;;;5041572;28;20085;-74
2023/06/16 02:52:43;;;;;;;34.28;21.50;;;15.10;99.90;;;;;;5041376;28;20025;-74
2023/06/16 02:55:09;;;;;;;31.23;20.73;;;15.10;99.90;;;;;;5040499;28;20025;-75
2023/06/16 02:57:35;;;;;;;35.47;20.35;;;15.10;99.90;;;;;;5041808;28;20022;-75
2023/06/16 03:00:01;;;;;;;28.65;18.17;;;15.10;99.90;;;;;;5040347;28;20049;-73
2023/06/16 03:02:27;;;;;;;30.88;20.05;;;15.10;99.90;;;;;;5044848;28;20056;-77
2023/06/16 03:04:52;;;;;;;29.95;20.45;;;15.10;99.90;;;;;;5045638;28;20022;-74
2023/06/16 03:07:19;;;;;;;31.23;21.30;;;15.10;99.90;;;;;;5043967;28;20548;-74
2023/06/16 03:09:45;;;;;;;29.52;20.50;;;15.10;99.90;;;;;;5044206;28;20025;-74
2023/06/16 03:12:11;;;;;;;33.83;20.88;;;15.10;99.90;;;;;;5044161;28;20739;-78
2023/06/16 03:14:37;;;;;;;31.35;20.58;;;15.20;99.90;;;;;;5043719;28;20125;-73
2023/06/16 03:17:03;;;;;;;35.88;21.98;;;15.20;99.90;;;;;;5044447;28;20018;-74
2023/06/16 03:19:28;;;;;;;30.75;20.60;;;15.20;99.90;;;;;;5044046;28;20025;-73
2023/06/16 03:21:54;;;;;;;34.75;21.00;;;15.20;99.90;;;;;;5045138;28;20026;-73
2023/06/16 03:24:19;;;;;;;32.67;20.98;;;15.20;99.90;;;;;;5045402;28;20022;-77
2023/06/16 03:26:46;;;;;;;29.52;19.55;;;15.40;99.90;;;;;;5043967;28;20037;-76
2023/06/16 03:29:12;;;;;;;35.03;21.50;;;15.30;99.90;;;;;;5044886;28;20071;-74
2023/06/16 03:31:39;;;;;;;34.53;21.13;;;15.30;99.90;;;;;;5043987;28;20044;-74
2023/06/16 03:34:05;;;;;;;33.28;21.98;;;15.30;99.90;;;;;;5044481;28;20041;-78
2023/06/16 03:36:39;;;;;;;34.13;19.90;;;15.30;99.90;;;;;;5044032;28;20037;-75
2023/06/16 03:39:05;;;;;;;42.65;21.13;;;15.40;99.90;;;;;;5045274;28;20021;-75
2023/06/16 03:41:34;;;;;;;33.17;21.45;;;15.20;99.90;;;;;;5043527;28;20037;-75
2023/06/16 03:44:00;;;;;;;35.80;21.55;;;15.40;99.90;;;;;;5044737;28;20029;-74
2023/06/16 03:46:31;;;;;;;30.83;20.15;;;15.30;99.90;;;;;;5043634;28;20034;-75
2023/06/16 03:48:57;;;;;;;32.65;19.75;;;15.40;99.90;;;;;;5043175;28;20031;-74
2023/06/16 03:51:24;;;;;;;26.98;18.95;;;15.30;99.90;;;;;;5044855;28;20039;-75
2023/06/16 03:53:50;;;;;;;26.52;19.67;;;15.50;99.90;;;;;;5044872;28;20040;-74
2023/06/16 03:56:17;;;;;;;26.10;18.48;;;15.50;99.90;;;;;;5043296;28;20490;-76
2023/06/16 03:58:42;;;;;;;29.48;20.25;;;15.50;99.90;;;;;;5042501;28;20045;-73
2023/06/16 04:01:09;;;;;;;31.35;19.15;;;15.50;99.90;;;;;;5044664;28;20075;-78
2023/06/16 04:03:35;;;;;;;28.88;19.15;;;15.50;99.90;;;;;;5043173;28;20029;-76
2023/06/16 04:06:00;;;;;;;32.47;19.88;;;15.70;99.90;;;;;;5043323;28;20021;-74
2023/06/16 04:08:26;;;;;;;26.30;17.90;;;15.60;99.90;;;;;;5044330;28;20021;-74
2023/06/16 04:10:57;;;;;;;29.38;19.55;;;15.50;99.90;;;;;;5044240;28;20048;-74
2023/06/16 04:13:23;;;;;;;32.28;20.00;;;15.60;99.90;;;;;;5044061;28;20025;-74
2023/06/16 04:15:49;;;;;;;31.02;20.40;;;15.60;99.90;;;;;;5042880;28;20025;-76
2023/06/16 04:18:14;;;;;;;30.15;20.30;;;15.60;99.90;;;;;;5044492;28;20032;-73
2023/06/16 04:20:40;;;;;;;28.63;20.33;;;15.60;99.90;;;;;;5043104;28;20030;-76
2023/06/16 04:23:09;;;;;;;34.25;23.05;;;15.60;99.90;;;;;;5041847;28;20056;-77
2023/06/16 04:25:38;;;;;;;40.53;24.23;;;15.70;99.90;;;;;;5044094;28;20021;-76
2023/06/16 04:28:07;;;;;;;35.85;23.17;;;15.70;99.90;;;;;;5044058;28;20045;-77
2023/06/16 04:30:33;;;;;;;39.85;24.55;;;15.70;99.90;;;;;;5043793;28;20021;-74
2023/06/16 04:33:01;;;;;;;34.85;25.08;;;15.80;99.90;;;;;;5043561;28;20043;-74
2023/06/16 04:35:29;;;;;;;40.22;25.27;;;15.80;99.90;;;;;;5041912;28;20032;-72
2023/06/16 04:37:57;;;;;;;34.90;25.52;;;15.80;99.90;;;;;;5042435;28;20021;-73
2023/06/16 04:40:26;;;;;;;39.88;25.27;;;15.80;99.90;;;;;;5043720;28;20024;-73
2023/06/16 04:42:52;;;;;;;36.42;25.73;;;15.80;99.90;;;;;;5043608;28;20025;-74
2023/06/16 04:45:18;;;;;;;38.90;25.15;;;15.90;99.90;;;;;;5042346;28;20037;-73
2023/06/16 04:47:44;;;;;;;37.83;25.95;;;15.90;99.90;;;;;;5042639;28;20120;-72
2023/06/16 04:50:10;;;;;;;42.20;25.40;;;15.90;99.90;;;;;;5043646;28;20041;-72
2023/06/16 04:52:39;;;;;;;38.30;25.25;;;15.90;99.90;;;;;;5042021;28;20032;-74
2023/06/16 04:55:06;;;;;;;35.35;24.92;;;15.90;99.90;;;;;;5042457;28;20069;-75
2023/06/16 04:57:34;;;;;;;37.33;24.98;;;15.90;99.90;;;;;;5042310;28;20026;-74
2023/06/16 05:00:03;;;;;;;38.08;25.08;;;15.90;99.90;;;;;;5042132;28;20459;-73
2023/06/16 05:02:28;;;;;;;35.88;24.92;;;15.90;99.90;;;;;;5042270;28;20031;-74
2023/06/16 05:04:55;;;;;;;37.85;25.42;;;15.90;99.90;;;;;;5041817;28;20100;-74
2023/06/16 05:07:21;;;;;;;38.10;24.42;;;16.00;99.90;;;;;;5043180;28;20021;-73
2023/06/16 05:09:46;;;;;;;41.83;24.80;;;16.00;99.90;;;;;;5043377;28;20048;-72
2023/06/16 05:12:12;;;;;;;35.63;24.55;;;16.00;99.90;;;;;;5038361;28;20021;-74
2023/06/16 05:14:37;;;;;;;33.90;24.10;;;15.90;99.90;;;;;;5043266;28;20034;-73
2023/06/16 05:17:04;;;;;;;37.80;24.17;;;16.10;99.90;;;;;;5042741;28;20049;-73
2023/06/16 05:19:32;;;;;;;37.78;22.52;;;16.10;99.90;;;;;;5042039;28;20072;-73
2023/06/16 05:21:58;;;;;;;32.70;22.67;;;16.00;99.90;;;;;;5042998;28;20032;-73
2023/06/16 05:24:23;;;;;;;33.78;22.05;;;16.20;99.90;;;;;;5041839;28;20029;-72
2023/06/16 05:26:49;;;;;;;38.40;25.17;;;16.30;99.90;;;;;;5043103;28;20033;-74
2023/06/16 05:29:14;;;;;;;31.75;22.73;;;16.40;99.90;;;;;;5043115;28;20474;-73
2023/06/16 05:31:40;;;;;;;33.92;23.83;;;16.30;99.90;;;;;;5042633;28;20029;-72
2023/06/16 05:34:05;;;;;;;37.38;23.70;;;16.40;99.90;;;;;;5042816;28;20062;-73
2023/06/16 05:36:34;;;;;;;31.58;21.70;;;16.40;99.90;;;;;;5042627;28;20028;-72
2023/06/16 05:39:01;;;;;;;41.60;23.52;;;16.50;99.90;;;;;;5039926;28;20403;-72
2023/06/16 05:41:27;;;;;;;31.65;20.80;;;16.60;99.90;;;;;;5040560;28;20115;-74
2023/06/16 05:43:54;;;;;;;29.90;20.23;;;16.70;99.90;;;;;;5042139;28;20049;-74
2023/06/16 05:46:19;;;;;;;28.02;19.05;;;16.80;99.90;;;;;;5041093;28;20075;-71
2023/06/16 05:48:45;;;;;;;24.73;17.25;;;16.90;99.90;;;;;;5042250;28;20029;-72
2023/06/16 05:51:10;;;;;;;27.48;18.65;;;16.90;99.90;;;;;;5041476;28;20067;-73
2023/06/16 05:53:36;;;;;;;27.77;19.67;;;17.00;99.90;;;;;;5041849;28;20033;-73
2023/06/16 05:56:02;;;;;;;25.45;17.80;;;17.00;99.90;;;;;;5041388;28;20025;-72
2023/06/16 05:58:27;;;;;;;28.48;18.15;;;17.00;99.90;;;;;;5042532;28;20090;-70
2023/06/16 06:00:53;;;;;;;28.27;18.95;;;17.00;99.90;;;;;;5042013;28;20034;-73
2023/06/16 06:03:18;;;;;;;25.58;17.92;;;17.10;99.90;;;;;;5042383;28;20367;-73
2023/06/16 06:05:44;;;;;;;27.85;18.58;;;17.00;99.90;;;;;;5041917;28;20080;-72
2023/06/16 06:08:10;;;;;;;30.88;18.48;;;17.00;99.90;;;;;;5042220;28;20079;-72
2023/06/16 06:10:35;;;;;;;28.00;18.38;;;16.90;99.90;;;;;;5042488;28;20056;-74
2023/06/16 06:13:04;;;;;;;29.67;18.23;;;17.00;99.90;;;;;;5042136;28;20068;-72
2023/06/16 06:15:30;;;;;;;31.35;19.52;;;17.00;99.90;;;;;;5041664;28;20045;-74
2023/06/16 06:17:56;;;;;;;26.75;18.48;;;17.10;99.90;;;;;;5042260;28;21396;-72
2023/06/16 06:20:21;;;;;;;25.02;18.73;;;17.10;99.90;;;;;;5042216;28;20036;-71
2023/06/16 06:22:47;;;;;;;26.90;17.30;;;17.20;99.90;;;;;;5041726;28;20021;-72
2023/06/16 06:25:13;;;;;;;27.95;18.58;;;17.20;99.90;;;;;;5042218;28;20060;-72
2023/06/16 06:27:39;;;;;;;25.75;16.38;;;17.30;99.90;;;;;;5041715;28;20382;-73
2023/06/16 06:30:07;;;;;;;28.52;16.63;;;17.30;99.90;;;;;;5041978;28;20128;-74
2023/06/16 06:32:33;;;;;;;22.38;16.17;;;17.40;99.90;;;;;;5041932;28;20155;-71
2023/06/16 06:34:58;;;;;;;21.85;15.60;;;17.50;99.90;;;;;;5041653;28;20084;-72
2023/06/16 06:37:30;;;;;;;24.20;18.20;;;17.50;99.90;;;;;;5041985;28;20111;-74
2023/06/16 06:39:56;;;;;;;21.23;16.35;;;17.50;99.90;;;;;;5042229;28;20093;-71
2023/06/16 06:42:22;;;;;;;22.60;16.83;;;17.50;99.90;;;;;;5041389;28;20060;-73
2023/06/16 06:44:47;;;;;;;24.58;18.35;;;17.60;99.90;;;;;;5040814;28;20036;-73
2023/06/16 06:47:13;;;;;;;22.40;14.75;;;17.70;99.90;;;;;;5041937;28;20033;-69
2023/06/16 06:49:40;;;;;;;19.40;14.20;;;17.70;99.90;;;;;;5041515;28;20628;-72
2023/06/16 06:52:06;;;;;;;21.63;12.98;;;17.70;99.90;;;;;;5041535;28;20028;-72
2023/06/16 06:54:31;;;;;;;18.63;13.25;;;17.80;99.90;;;;;;5041762;28;20037;-71
2023/06/16 06:56:57;;;;;;;20.05;14.30;;;17.90;99.90;;;;;;5041521;28;20072;-73
2023/06/16 06:59:22;;;;;;;18.65;12.98;;;18.00;99.90;;;;;;5041619;28;20026;-71
2023/06/16 07:01:48;;;;;;;24.38;14.07;;;18.00;99.90;;;;;;5041605;28;20081;-70
2023/06/16 07:04:13;;;;;;;22.08;13.23;;;18.00;99.90;;;;;;5040181;28;20041;-73
2023/06/16 07:06:39;;;;;;;21.98;14.18;;;18.20;99.90;;;;;;5040738;28;20021;-72
2023/06/16 07:09:05;;;;;;;19.13;13.43;;;18.30;99.90;;;;;;5041824;28;20021;-73
2023/06/16 07:11:30;;;;;;;20.92;13.55;;;18.30;99.90;;;;;;5041458;28;20063;-73
2023/06/16 07:13:56;;;;;;;18.45;12.07;;;18.30;99.90;;;;;;5041597;28;20029;-72
2023/06/16 07:16:21;;;;;;;17.42;11.07;;;18.40;99.90;;;;;;5040444;28;20022;-71
2023/06/16 07:18:48;;;;;;;18.52;13.25;;;18.50;99.90;;;;;;5040183;28;20458;-72
2023/06/16 07:21:13;;;;;;;18.60;12.43;;;18.60;99.90;;;;;;5039519;28;20038;-71
2023/06/16 07:23:39;;;;;;;16.88;12.18;;;18.70;99.90;;;;;;5041444;28;20030;-76
2023/06/16 07:26:04;;;;;;;17.55;12.50;;;18.80;99.90;;;;;;5041470;28;20030;-71
2023/06/16 07:28:30;;;;;;;16.42;11.50;;;18.90;99.90;;;;;;5041683;28;20108;-71
2023/06/16 07:30:56;;;;;;;15.20;10.90;;;18.90;99.90;;;;;;5040794;28;20021;-71
2023/06/16 07:33:21;;;;;;;19.83;11.32;;;19.00;99.90;;;;;;5039549;28;20075;-72
2023/06/16 07:35:47;;;;;;;16.23;9.60;;;19.00;99.90;;;;;;5041391;28;20033;-72
2023/06/16 07:38:14;;;;;;;16.38;9.60;;;19.10;99.90;;;;;;5041308;28;20026;-73
2023/06/16 07:40:40;;;;;;;14.40;9.90;;;19.20;99.90;;;;;;5039558;28;20029;-73
2023/06/16 07:43:06;;;;;;;13.30;8.95;;;19.30;99.90;;;;;;5039932;28;20037;-74
2023/06/16 07:45:33;;;;;;;15.63;10.50;;;19.30;99.90;;;;;;5040051;28;20529;-74
2023/06/16 07:47:59;;;;;;;18.27;10.82;;;19.40;99.90;;;;;;5043068;28;20026;-71
2023/06/16 07:50:24;;;;;;;15.30;9.55;;;19.40;99.90;;;;;;5043322;28;20121;-73
2023/06/16 07:52:51;;;;;;;15.70;9.60;;;19.60;99.90;;;;;;5043241;28;20045;-73
2023/06/16 07:55:16;;;;;;;15.68;10.75;;;19.60;99.90;;;;;;5044848;28;20017;-73
2023/06/16 07:57:42;;;;;;;13.30;10.15;;;19.70;99.90;;;;;;5043386;28;20052;-70
2023/06/16 08:00:11;;;;;;;14.20;9.02;;;19.70;99.90;;;;;;5044839;28;20021;-73
2023/06/16 08:02:41;;;;;;;16.50;9.73;;;19.80;99.90;;;;;;5043546;28;20390;-72
2023/06/16 08:05:07;;;;;;;16.27;9.43;;;20.00;99.90;;;;;;5044639;28;20026;-73
2023/06/16 08:07:34;;;;;;;13.52;9.43;;;20.00;99.90;;;;;;5044384;28;20056;-72
2023/06/16 08:10:00;;;;;;;12.80;8.88;;;20.10;99.90;;;;;;5043338;28;20033;-72
2023/06/16 08:12:26;;;;;;;16.00;9.43;;;20.20;99.90;;;;;;5042985;28;20022;-71
2023/06/16 08:14:51;;;;;;;15.77;9.88;;;20.30;99.90;;;;;;5044481;28;20080;-72
2023/06/16 08:17:18;;;;;;;14.40;9.55;;;20.40;99.90;;;;;;5044578;28;20021;-74
2023/06/16 08:19:43;;;;;;;17.00;9.20;;;20.30;99.90;;;;;;5043544;28;20040;-72
2023/06/16 08:22:09;;;;;;;11.70;8.57;;;20.40;99.90;;;;;;5043999;28;20026;-74
2023/06/16 08:24:35;;;;;;;14.13;9.13;;;20.40;99.90;;;;;;5044483;28;20032;-72
2023/06/16 08:27:01;;;;;;;16.05;8.82;;;20.40;99.90;;;;;;5043844;28;20043;-73
2023/06/16 08:29:30;;;;;;;12.00;9.38;;;20.40;99.90;;;;;;5044225;28;20051;-71
2023/06/16 08:31:56;;;;;;;14.60;9.27;;;20.40;99.90;;;;;;5043921;28;20018;-75
2023/06/16 08:34:21;;;;;;;14.27;9.27;;;20.50;99.90;;;;;;5042372;28;20041;-73
2023/06/16 08:36:47;;;;;;;17.13;9.43;;;20.60;99.90;;;;;;5044212;28;20060;-71
2023/06/16 08:39:13;;;;;;;13.93;9.27;;;20.60;99.90;;;;;;5043008;28;20025;-73
2023/06/16 08:41:39;;;;;;;15.38;8.80;;;20.70;99.90;;;;;;5043954;28;20030;-72
2023/06/16 08:44:09;;;;;;;14.73;9.48;;;20.80;99.90;;;;;;5042115;28;20017;-73
2023/06/16 08:46:36;;;;;;;12.93;9.23;;;20.80;99.90;;;;;;5043667;28;20022;-71
2023/06/16 08:49:04;;;;;;;13.63;9.15;;;20.70;99.90;;;;;;5043312;28;20041;-71
2023/06/16 08:51:34;;;;;;;16.13;9.55;;;20.70;99.90;;;;;;5043482;28;20124;-71
2023/06/16 08:54:03;;;;;;;13.80;9.38;;;20.80;99.90;;;;;;5040882;28;20033;-71
2023/06/16 08:56:33;;;;;;;16.63;9.63;;;21.00;99.90;;;;;;5041544;28;20094;-73
2023/06/16 08:59:03;;;;;;;11.95;8.98;;;21.10;99.90;;;;;;5043025;28;20029;-71
2023/06/16 09:01:33;;;;;;;17.58;9.10;;;21.10;99.90;;;;;;5042225;28;20097;-73
2023/06/16 09:03:59;;;;;;;16.05;9.00;;;21.10;99.90;;;;;;5042975;28;20070;-72
2023/06/16 09:06:25;;;;;;;12.38;8.68;;;21.20;99.90;;;;;;5042341;28;20089;-71
2023/06/16 09:08:52;;;;;;;12.82;8.80;;;21.30;99.90;;;;;;5042615;28;20064;-71
2023/06/16 09:11:23;;;;;;;12.48;8.23;;;21.40;99.90;;;;;;5041642;28;20021;-72
2023/06/16 09:13:51;;;;;;;17.73;9.00;;;21.50;99.90;;;;;;5042463;28;20033;-73
2023/06/16 09:16:18;;;;;;;11.55;8.32;;;21.50;99.90;;;;;;5042526;28;20034;-72
2023/06/16 09:18:44;;;;;;;13.20;8.57;;;21.50;99.90;;;;;;5042443;28;20018;-72
2023/06/16 09:21:14;;;;;;;11.73;8.75;;;21.60;99.90;;;;;;5041207;28;20021;-72
2023/06/16 09:23:42;;;;;;;12.75;8.70;;;21.60;99.90;;;;;;5041285;28;20368;-72
2023/06/16 09:26:15;;;;;;;13.05;8.27;;;21.60;99.90;;;;;;5042823;28;20022;-72
2023/06/16 09:28:40;;;;;;;16.23;8.30;;;21.60;99.90;;;;;;5042310;28;20021;-71
2023/06/16 09:31:08;;;;;;;9.30;7.85;;;21.70;99.90;;;;;;5043109;28;20036;-72
2023/06/16 09:33:34;;;;;;;11.77;7.75;;;21.80;99.90;;;;;;5041914;28;20037;-73
2023/06/16 09:36:01;;;;;;;10.80;7.43;;;21.80;99.90;;;;;;5041773;28;20025;-75
2023/06/16 09:38:35;;;;;;;11.45;7.63;;;21.80;99.90;;;;;;5041567;28;20132;-71
2023/06/16 09:41:18;;;;;;;11.63;8.70;;;21.80;99.90;;;;;;5041774;28;20025;-71
2023/06/16 09:43:44;;;;;;;17.42;8.25;;;21.80;99.90;;;;;;5042368;28;20081;-71
2023/06/16 09:46:13;;;;;;;13.63;8.77;;;21.70;99.90;;;;;;5041507;28;20044;-72
2023/06/16 09:48:49;;;;;;;13.63;8.18;;;21.60;99.90;;;;;;5040239;28;20033;-72
2023/06/16 09:51:23;;;;;;;13.82;7.70;;;21.50;99.90;;;;;;5042130;28;20060;-73
2023/06/16 09:53:49;;;;;;;14.27;8.77;;;21.70;99.90;;;;;;5042578;28;20429;-72
2023/06/16 09:56:17;;;;;;;11.80;7.95;;;21.90;99.90;;;;;;5041945;28;20065;-75
2023/06/16 09:58:46;;;;;;;13.20;9.73;;;22.10;99.90;;;;;;5040679;28;20026;-74
2023/06/16 10:01:14;;;;;;;15.13;8.13;;;22.20;99.90;;;;;;5040098;28;20093;-71
2023/06/16 10:03:43;;;;;;;13.63;9.32;;;22.30;99.90;;;;;;5042080;28;20029;-73
2023/06/16 10:06:20;;;;;;;13.20;9.02;;;22.40;99.90;;;;;;5041513;28;20066;-73
2023/06/16 10:08:47;;;;;;;14.25;8.95;;;22.50;99.90;;;;;;5039327;28;20040;-72
2023/06/16 10:11:17;;;;;;;11.80;8.40;;;22.60;99.90;;;;;;5040239;28;20033;-70
2023/06/16 10:13:51;;;;;;;13.35;8.43;;;22.60;99.90;;;;;;5041958;28;20036;-71
2023/06/16 10:16:21;;;;;;;14.00;8.20;;;22.60;99.90;;;;;;5041681;28;20033;-73
2023/06/16 10:18:47;;;;;;;13.77;8.30;;;22.60;99.90;;;;;;5041474;28;20022;-71
2023/06/16 10:21:15;;;;;;;12.02;8.25;;;22.70;99.90;;;;;;5041585;28;20390;-72
2023/06/16 10:23:40;;;;;;;14.00;8.07;;;22.70;99.90;;;;;;5039696;28;20432;-73
2023/06/16 10:26:07;;;;;;;9.73;7.65;;;22.70;99.90;;;;;;5042579;28;20068;-68
2023/06/16 10:28:35;;;;;;;11.48;7.80;;;22.80;99.90;;;;;;5040896;28;20088;-73
2023/06/16 10:31:03;;;;;;;11.10;7.43;;;22.80;99.90;;;;;;5040322;28;20029;-72
2023/06/16 10:33:28;;;;;;;14.48;7.38;;;22.80;99.90;;;;;;5041721;28;20033;-70
2023/06/16 10:36:01;;;;;;;10.55;7.55;;;22.90;99.90;;;;;;5039025;28;20032;-72
2023/06/16 10:38:34;;;;;;;12.77;7.40;;;22.90;99.90;;;;;;5040190;28;20068;-71
2023/06/16 10:41:06;;;;;;;10.68;6.55;;;22.90;99.90;;;;;;5041975;28;20116;-73
2023/06/16 10:43:31;;;;;;;11.65;7.85;;;23.00;99.90;;;;;;5040857;28;20036;-71
2023/06/16 10:46:13;;;;;;;10.52;8.63;;;23.10;99.90;;;;;;5040569;28;20034;-72
2023/06/16 10:49:09;;;;;;;13.15;7.40;;;23.10;99.90;;;;;;5040205;28;20040;-73
2023/06/16 10:51:48;;;;;;;12.43;7.30;;;23.20;99.90;;;;;;5040790;28;20056;-73
2023/06/16 10:54:15;;;;;;;12.52;7.40;;;23.20;99.90;;;;;;5040060;28;20041;-70
2023/06/16 10:57:01;;;;;;;11.13;7.30;;;23.20;99.90;;;;;;5041496;28;20022;-74
2023/06/16 10:59:27;;;;;;;10.05;7.03;;;23.20;99.90;;;;;;5041009;28;20026;-73
2023/06/16 11:01:57;;;;;;;13.45;6.85;;;23.20;99.90;;;;;;5041706;28;20041;-72
2023/06/16 11:04:23;;;;;;;17.65;8.10;;;23.20;99.90;;;;;;5041473;28;20021;-69
2023/06/16 11:07:17;;;;;;;10.70;6.85;;;23.30;99.90;;;;;;5041419;28;20017;-73
2023/06/16 11:09:43;;;;;;;;;;;23.30;99.90;;;;;;5037198;28;20038;-74
2023/06/16 11:12:10;;;;;;;13.45;7.50;;;23.40;99.90;;;;;;5041634;28;19968;-70
2023/06/16 11:14:36;;;;;;;11.75;7.20;;;23.40;99.90;;;;;;5041251;28;20037;-72
2023/06/16 11:17:03;;;;;;;13.57;7.45;;;23.50;99.90;;;;;;5041197;28;20026;-72
2023/06/16 11:19:28;;;;;;;11.65;7.05;;;23.50;99.90;;;;;;5040043;28;20021;-73
2023/06/16 11:21:54;;;;;;;8.73;6.60;;;23.70;99.90;;;;;;5039478;28;20556;-76
2023/06/16 11:24:20;;;;;;;10.45;7.15;;;23.70;99.90;;;;;;5045395;28;20030;-71
2023/06/16 11:26:45;;;;;;;10.35;6.32;;;23.80;99.90;;;;;;5044297;28;20025;-74
2023/06/16 11:29:11;;;;;;;11.07;6.85;;;23.90;99.90;;;;;;5045247;28;20053;-73
2023/06/16 11:31:37;;;;;;;8.02;6.88;;;23.90;99.90;;;;;;5045370;28;20041;-70
2023/06/16 11:34:04;;;;;;;11.98;6.30;;;24.00;99.90;;;;;;5045117;28;20588;-76
2023/06/16 11:36:30;;;;;;;9.32;6.88;;;24.00;99.90;;;;;;5044917;28;20037;-70
2023/06/16 11:38:55;;;;;;;10.88;6.80;;;24.10;99.90;;;;;;5045339;28;20030;-74
2023/06/16 11:41:29;;;;;;;8.10;6.30;;;24.20;99.90;;;;;;5043901;28;20085;-73
2023/06/16 11:43:55;;;;;;;;;;;24.20;99.90;;;;;;5043876;28;20478;-70
2023/06/16 11:46:23;;;;;;;9.25;6.57;;;24.30;99.90;;;;;;5045164;28;19912;-73
2023/06/16 11:48:51;;;;;;;14.18;7.05;;;24.40;99.90;;;;;;5043901;28;20025;-74
2023/06/16 11:51:17;;;;;;;11.18;6.97;;;24.50;99.90;;;;;;5045042;28;20478;-73
2023/06/16 11:53:44;;;;;;;12.18;6.57;;;24.50;99.90;;;;;;5045120;28;20386;-74
2023/06/16 11:56:15;;;;;;;11.93;6.50;;;24.40;99.90;;;;;;5044683;28;20021;-75
2023/06/16 11:58:45;;;;;;;10.75;6.38;;;24.40;99.90;;;;;;5044572;28;20507;-73
2023/06/16 12:01:15;;;;;;;10.23;6.40;;;24.20;99.90;;;;;;5043587;28;20056;-76
2023/06/16 12:03:42;;;;;;;7.55;5.88;;;24.20;99.90;;;;;;5043950;28;20053;-76
2023/06/16 12:06:08;;;;;;;7.20;6.13;;;24.20;99.90;;;;;;5043154;28;20101;-75
2023/06/16 12:08:44;;;;;;;14.90;6.18;;;24.30;99.90;;;;;;5043546;28;20033;-75
2023/06/16 12:11:13;;;;;;;11.95;6.85;;;24.40;99.90;;;;;;5043131;28;20029;-74
2023/06/16 12:13:39;;;;;;;11.95;6.70;;;24.60;99.90;;;;;;5044516;28;20041;-73
2023/06/16 12:16:07;;;;;;;8.10;6.10;;;24.70;99.90;;;;;;5044132;28;20056;-76
2023/06/16 12:18:34;;;;;;;8.85;6.47;;;24.90;99.90;;;;;;5043152;28;20022;-73
2023/06/16 12:21:32;;;;;;;7.68;5.57;;;25.00;99.90;;;;;;5044608;28;20025;-72
2023/06/16 12:23:59;;;;;;;7.65;6.13;;;25.20;99.90;;;;;;5031516;28;20490;-72
2023/06/16 12:26:27;;;;;;;8.55;6.70;;;25.40;99.90;;;;;;5043752;28;20528;-71
2023/06/16 12:28:54;;;;;;;10.15;6.40;;;25.50;99.90;;;;;;5042411;28;20093;-73
2023/06/16 12:31:21;;;;;;;10.00;6.60;;;25.50;99.90;;;;;;5042573;28;20034;-72
2023/06/16 12:33:51;;;;;;;19.48;6.80;;;25.60;99.90;;;;;;5042568;28;20033;-73